sensor_id;sensor_type;location;lat;lon;timestamp;pressure;altitude;pressure_sealevel;temperature;humidity
58769;BME280;44536;47.474;19.056;2023-05-28T00:00:43;100696.56;;;15.94;55.19
58769;BME280;44536;47.474;19.056;2023-05-28T00:03:46;100694.59;;;15.96;54.46
58769;BME280;44536;47.474;19.056;2023-05-28T00:06:48;100692.47;;;16.00;53.47
58769;BME280;44536;47.474;19.056;2023-05-28T00:09:51;100690.50;;;16.02;53.56
58769;BME280;44536;47.474;19.056;2023-05-28T00:12:53;100682.19;;;16.05;52.78
58769;BME280;44536;47.474;19.056;2023-05-28T00:15:55;100686.97;;;16.01;52.97
58769;BME280;44536;47.474;19.056;2023-05-28T00:18:57;100686.56;;;15.96;53.27
58769;BME280;44536;47.474;19.056;2023-05-28T00:22:00;100684.87;;;15.95;52.64
58769;BME280;44536;47.474;19.056;2023-05-28T00:25:02;100684.87;;;15.95;51.33
58769;BME280;44536;47.474;19.056;2023-05-28T00:28:04;100687.97;;;16.00;52.07
58769;BME280;44536;47.474;19.056;2023-05-28T00:31:07;100680.50;;;15.94;49.30
58769;BME280;44536;47.474;19.056;2023-05-28T00:34:09;100684.87;;;15.95;49.67
58769;BME280;44536;47.474;19.056;2023-05-28T00:37:11;100675.88;;;15.96;49.92
58769;BME280;44536;47.474;19.056;2023-05-28T00:40:14;100672.50;;;15.84;48.63
58769;BME280;44536;47.474;19.056;2023-05-28T00:43:20;100670.25;;;15.80;50.88
58769;BME280;44536;47.474;19.056;2023-05-28T00:46:23;100668.56;;;15.79;50.28
58769;BME280;44536;47.474;19.056;2023-05-28T00:49:26;100666.59;;;15.71;50.12
58769;BME280;44536;47.474;19.056;2023-05-28T00:52:28;100667.72;;;15.78;50.68
58769;BME280;44536;47.474;19.056;2023-05-28T00:55:31;100661.97;;;15.73;50.37
58769;BME280;44536;47.474;19.056;2023-05-28T00:58:33;100666.19;;;15.66;50.30
58769;BME280;44536;47.474;19.056;2023-05-28T01:01:36;100653.25;;;15.62;50.28
58769;BME280;44536;47.474;19.056;2023-05-28T01:04:39;100655.62;;;15.55;50.19
58769;BME280;44536;47.474;19.056;2023-05-28T01:07:41;100656.75;;;15.52;50.72
58769;BME280;44536;47.474;19.056;2023-05-28T01:10:44;100654.91;;;15.43;50.95
58769;BME280;44536;47.474;19.056;2023-05-28T01:13:46;100642.12;;;15.37;50.99
58769;BME280;44536;47.474;19.056;2023-05-28T01:16:50;100644.94;;;15.36;51.00
58769;BME280;44536;47.474;19.056;2023-05-28T01:19:54;100639.44;;;15.37;49.95
58769;BME280;44536;47.474;19.056;2023-05-28T01:23:06;100641.00;;;15.30;50.31
58769;BME280;44536;47.474;19.056;2023-05-28T01:26:09;100633.81;;;15.21;50.54
58769;BME280;44536;47.474;19.056;2023-05-28T01:29:15;100636.75;;;15.18;49.97
58769;BME280;44536;47.474;19.056;2023-05-28T01:32:18;100637.91;;;15.25;50.73
58769;BME280;44536;47.474;19.056;2023-05-28T01:35:20;100634.22;;;15.16;50.42
58769;BME280;44536;47.474;19.056;2023-05-28T01:38:22;100637.88;;;15.15;51.55
58769;BME280;44536;47.474;19.056;2023-05-28T01:41:26;100639.28;;;15.10;51.08
58769;BME280;44536;47.474;19.056;2023-05-28T01:44:28;100637.06;;;15.05;51.42
58769;BME280;44536;47.474;19.056;2023-05-28T01:47:32;100631.84;;;15.04;50.57
58769;BME280;44536;47.474;19.056;2023-05-28T01:50:35;100632.25;;;14.99;51.04
58769;BME280;44536;47.474;19.056;2023-05-28T01:53:38;100637.03;;;14.96;50.43
58769;BME280;44536;47.474;19.056;2023-05-28T01:56:40;100631.41;;;14.99;51.08
58769;BME280;44536;47.474;19.056;2023-05-28T01:59:43;100629.47;;;15.01;50.99
58769;BME280;44536;47.474;19.056;2023-05-28T02:02:45;100626.66;;;15.02;50.29
58769;BME280;44536;47.474;19.056;2023-05-28T02:05:48;100630.03;;;15.04;51.28
58769;BME280;44536;47.474;19.056;2023-05-28T02:08:50;100630.84;;;14.95;51.47
58769;BME280;44536;47.474;19.056;2023-05-28T02:11:53;100628.16;;;14.85;52.85
58769;BME280;44536;47.474;19.056;2023-05-28T02:14:55;100626.19;;;14.87;51.64
58769;BME280;44536;47.474;19.056;2023-05-28T02:17:58;100618.19;;;14.87;52.16
58769;BME280;44536;47.474;19.056;2023-05-28T02:21:00;100625.50;;;14.85;51.65
58769;BME280;44536;47.474;19.056;2023-05-28T02:24:03;100630.25;;;14.82;52.04
58769;BME280;44536;47.474;19.056;2023-05-28T02:27:06;100629.41;;;14.81;52.01
58769;BME280;44536;47.474;19.056;2023-05-28T02:30:08;100624.75;;;14.74;52.66
58769;BME280;44536;47.474;19.056;2023-05-28T02:33:12;100620.41;;;14.73;52.86
58769;BME280;44536;47.474;19.056;2023-05-28T02:36:14;100625.84;;;14.62;53.05
58769;BME280;44536;47.474;19.056;2023-05-28T02:39:16;100629.22;;;14.54;53.94
58769;BME280;44536;47.474;19.056;2023-05-28T02:42:19;100625.72;;;14.53;53.54
58769;BME280;44536;47.474;19.056;2023-05-28T02:45:22;100627.34;;;14.45;54.10
58769;BME280;44536;47.474;19.056;2023-05-28T02:48:26;100623.44;;;14.49;54.04
58769;BME280;44536;47.474;19.056;2023-05-28T02:51:28;100622.72;;;14.47;54.53
58769;BME280;44536;47.474;19.056;2023-05-28T02:54:31;100633.41;;;14.47;54.28
58769;BME280;44536;47.474;19.056;2023-05-28T02:57:33;100622.72;;;14.47;54.21
58769;BME280;44536;47.474;19.056;2023-05-28T03:00:36;100621.88;;;14.46;54.97
58769;BME280;44536;47.474;19.056;2023-05-28T03:03:38;100623.00;;;14.44;54.75
58769;BME280;44536;47.474;19.056;2023-05-28T03:06:41;100621.88;;;14.46;55.00
58769;BME280;44536;47.474;19.056;2023-05-28T03:09:43;100626.38;;;14.46;55.81
58769;BME280;44536;47.474;19.056;2023-05-28T03:12:45;100624.97;;;14.42;55.41
58769;BME280;44536;47.474;19.056;2023-05-28T03:15:48;100625.66;;;14.44;55.72
58769;BME280;44536;47.474;19.056;2023-05-28T03:18:50;100610.63;;;14.43;55.36
58769;BME280;44536;47.474;19.056;2023-05-28T03:21:53;100622.28;;;14.42;55.60
58769;BME280;44536;47.474;19.056;2023-05-28T03:24:55;100615.69;;;14.46;56.02
58769;BME280;44536;47.474;19.056;2023-05-28T03:27:59;100615.56;;;14.47;55.41
58769;BME280;44536;47.474;19.056;2023-05-28T03:31:03;100619.53;;;14.53;55.62
58769;BME280;44536;47.474;19.056;2023-05-28T03:34:06;100620.22;;;14.55;56.47
58769;BME280;44536;47.474;19.056;2023-05-28T03:37:08;100622.31;;;14.61;56.41
58769;BME280;44536;47.474;19.056;2023-05-28T03:40:11;100618.97;;;14.69;55.68
58769;BME280;44536;47.474;19.056;2023-05-28T03:43:13;100624.19;;;14.70;56.41
58769;BME280;44536;47.474;19.056;2023-05-28T03:46:16;100619.72;;;14.80;55.67
58769;BME280;44536;47.474;19.056;2023-05-28T03:49:18;100617.75;;;14.82;56.17
58769;BME280;44536;47.474;19.056;2023-05-28T03:52:20;100618.19;;;14.87;54.73
58769;BME280;44536;47.474;19.056;2023-05-28T03:55:23;100612.56;;;14.90;55.40
58769;BME280;44536;47.474;19.056;2023-05-28T03:58:25;100615.81;;;14.94;55.19
58769;BME280;44536;47.474;19.056;2023-05-28T04:01:28;100616.25;;;14.99;55.64
58769;BME280;44536;47.474;19.056;2023-05-28T04:04:30;100614.28;;;15.01;55.04
58769;BME280;44536;47.474;19.056;2023-05-28T04:07:32;100624.25;;;15.09;55.14
58769;BME280;44536;47.474;19.056;2023-05-28T04:10:35;100617.63;;;15.13;55.32
58769;BME280;44536;47.474;19.056;2023-05-28T04:13:37;100620.72;;;15.18;54.73
58769;BME280;44536;47.474;19.056;2023-05-28T04:16:40;100614.41;;;15.29;55.13
58769;BME280;44536;47.474;19.056;2023-05-28T04:19:42;100617.38;;;15.35;56.44
58769;BME280;44536;47.474;19.056;2023-05-28T04:22:44;100630.44;;;15.38;54.94
58769;BME280;44536;47.474;19.056;2023-05-28T04:25:46;100624.53;;;15.44;55.31
58769;BME280;44536;47.474;19.056;2023-05-28T04:28:49;100620.31;;;15.51;55.75
58769;BME280;44536;47.474;19.056;2023-05-28T04:31:52;100625.12;;;15.58;54.33
58769;BME280;44536;47.474;19.056;2023-05-28T04:34:55;100623.00;;;15.61;54.48
58769;BME280;44536;47.474;19.056;2023-05-28T04:37:57;100634.25;;;15.65;53.46
58769;BME280;44536;47.474;19.056;2023-05-28T04:40:59;100630.88;;;15.72;53.73
58769;BME280;44536;47.474;19.056;2023-05-28T04:44:07;100626.47;;;15.91;53.47
58769;BME280;44536;47.474;19.056;2023-05-28T04:47:11;100635.06;;;15.94;52.70
58769;BME280;44536;47.474;19.056;2023-05-28T04:50:16;100630.41;;;15.96;52.53
58769;BME280;44536;47.474;19.056;2023-05-28T04:53:18;100630.25;;;15.98;52.51
58769;BME280;44536;47.474;19.056;2023-05-28T04:56:20;100638.44;;;15.96;53.31
58769;BME280;44536;47.474;19.056;2023-05-28T04:59:23;100638.84;;;16.01;52.19
58769;BME280;44536;47.474;19.056;2023-05-28T05:02:26;100641.22;;;16.04;51.74
58769;BME280;44536;47.474;19.056;2023-05-28T05:05:29;100638.19;;;16.17;52.08
58769;BME280;44536;47.474;19.056;2023-05-28T05:08:32;100638.28;;;16.35;52.50
58769;BME280;44536;47.474;19.056;2023-05-28T05:11:34;100643.16;;;16.49;51.85
58769;BME280;44536;47.474;19.056;2023-05-28T05:14:37;100630.03;;;16.55;51.18
58769;BME280;44536;47.474;19.056;2023-05-28T05:17:39;100628.41;;;16.72;51.54
58769;BME280;44536;47.474;19.056;2023-05-28T05:20:42;100628.75;;;16.87;51.50
58769;BME280;44536;47.474;19.056;2023-05-28T05:23:44;100638.19;;;17.09;50.56
58769;BME280;44536;47.474;19.056;2023-05-28T05:26:46;100632.81;;;17.27;49.87
58769;BME280;44536;47.474;19.056;2023-05-28T05:29:49;100634.91;;;17.33;49.91
58769;BME280;44536;47.474;19.056;2023-05-28T05:32:51;100637.66;;;17.59;49.36
58769;BME280;44536;47.474;19.056;2023-05-28T05:35:54;100635.06;;;17.93;47.40
58769;BME280;44536;47.474;19.056;2023-05-28T05:38:57;100626.78;;;18.38;47.14
58769;BME280;44536;47.474;19.056;2023-05-28T05:42:00;100626.44;;;18.75;46.20
58769;BME280;44536;47.474;19.056;2023-05-28T05:45:03;100625.59;;;19.57;44.95
58769;BME280;44536;47.474;19.056;2023-05-28T05:48:07;100631.00;;;20.45;42.37
58769;BME280;44536;47.474;19.056;2023-05-28T05:51:09;100621.94;;;20.77;41.46
58769;BME280;44536;47.474;19.056;2023-05-28T05:54:14;100625.06;;;20.89;41.09
58769;BME280;44536;47.474;19.056;2023-05-28T05:57:16;100616.53;;;21.54;40.78
58769;BME280;44536;47.474;19.056;2023-05-28T06:00:20;100622.28;;;22.26;39.10
58769;BME280;44536;47.474;19.056;2023-05-28T06:03:22;100618.94;;;23.25;37.63
58769;BME280;44536;47.474;19.056;2023-05-28T06:06:28;100625.91;;;23.56;36.40
58769;BME280;44536;47.474;19.056;2023-05-28T06:09:31;100627.81;;;23.83;36.34
58769;BME280;44536;47.474;19.056;2023-05-28T06:12:35;100636.41;;;23.93;36.04
58769;BME280;44536;47.474;19.056;2023-05-28T06:15:38;100641.63;;;23.95;35.16
58769;BME280;44536;47.474;19.056;2023-05-28T06:18:43;100637.31;;;24.28;34.81
58769;BME280;44536;47.474;19.056;2023-05-28T06:21:46;100638.41;;;24.82;34.30
58769;BME280;44536;47.474;19.056;2023-05-28T06:24:48;100632.69;;;25.11;34.22
58769;BME280;44536;47.474;19.056;2023-05-28T06:27:52;100633.00;;;25.69;33.27
58769;BME280;44536;47.474;19.056;2023-05-28T06:30:54;100635.47;;;25.44;32.96
58769;BME280;44536;47.474;19.056;2023-05-28T06:33:56;100642.19;;;25.68;33.18
58769;BME280;44536;47.474;19.056;2023-05-28T06:36:58;100644.66;;;25.50;33.33
58769;BME280;44536;47.474;19.056;2023-05-28T06:40:01;100656.19;;;26.04;31.98
58769;BME280;44536;47.474;19.056;2023-05-28T06:43:03;100643.19;;;26.40;31.25
58769;BME280;44536;47.474;19.056;2023-05-28T06:46:05;100644.69;;;27.00;30.26
58769;BME280;44536;47.474;19.056;2023-05-28T06:49:08;100643.41;;;27.34;29.86
58769;BME280;44536;47.474;19.056;2023-05-28T06:52:10;100643.84;;;26.99;30.34
58769;BME280;44536;47.474;19.056;2023-05-28T06:55:12;100646.38;;;26.88;30.78
58769;BME280;44536;47.474;19.056;2023-05-28T06:58:16;100655.62;;;26.74;30.84
58769;BME280;44536;47.474;19.056;2023-05-28T07:01:20;100645.34;;;26.82;31.06
58769;BME280;44536;47.474;19.056;2023-05-28T07:04:22;100643.97;;;27.11;30.34
58769;BME280;44536;47.474;19.056;2023-05-28T07:07:25;100640.50;;;26.91;30.25
58769;BME280;44536;47.474;19.056;2023-05-28T07:10:27;100635.28;;;26.96;30.15
58769;BME280;44536;47.474;19.056;2023-05-28T07:13:30;100636.09;;;26.38;31.61
58769;BME280;44536;47.474;19.056;2023-05-28T07:16:33;100645.28;;;26.37;31.34
58769;BME280;44536;47.474;19.056;2023-05-28T07:19:35;100641.94;;;26.35;31.81
58769;BME280;44536;47.474;19.056;2023-05-28T07:22:38;100640.16;;;26.67;31.77
58769;BME280;44536;47.474;19.056;2023-05-28T07:25:41;100639.06;;;25.84;32.35
58769;BME280;44536;47.474;19.056;2023-05-28T07:28:44;100645.00;;;25.07;33.81
58769;BME280;44536;47.474;19.056;2023-05-28T07:31:46;100644.91;;;24.46;34.85
58769;BME280;44536;47.474;19.056;2023-05-28T07:34:51;100646.41;;;24.21;36.45
58769;BME280;44536;47.474;19.056;2023-05-28T07:37:54;100645.56;;;24.20;35.38
58769;BME280;44536;47.474;19.056;2023-05-28T07:40:57;100633.56;;;23.31;36.90
58769;BME280;44536;47.474;19.056;2023-05-28T07:44:00;100635.94;;;23.19;37.16
58769;BME280;44536;47.474;19.056;2023-05-28T07:47:02;100646.53;;;23.35;37.64
58769;BME280;44536;47.474;19.056;2023-05-28T07:50:07;100637.22;;;23.23;37.88
58769;BME280;44536;47.474;19.056;2023-05-28T07:53:11;100638.75;;;23.11;38.16
58769;BME280;44536;47.474;19.056;2023-05-28T07:56:14;100638.75;;;23.11;38.49
58769;BME280;44536;47.474;19.056;2023-05-28T07:59:16;100634.97;;;23.97;36.60
58769;BME280;44536;47.474;19.056;2023-05-28T08:02:20;100635.75;;;24.95;34.65
58769;BME280;44536;47.474;19.056;2023-05-28T08:05:22;100630.66;;;25.39;34.16
58769;BME280;44536;47.474;19.056;2023-05-28T08:08:25;100631.13;;;25.83;33.78
58769;BME280;44536;47.474;19.056;2023-05-28T08:11:27;100629.63;;;26.06;33.67
58769;BME280;44536;47.474;19.056;2023-05-28T08:14:30;100628.72;;;26.52;32.95
58769;BME280;44536;47.474;19.056;2023-05-28T08:17:33;100620.06;;;26.75;32.29
58769;BME280;44536;47.474;19.056;2023-05-28T08:20:37;100621.56;;;26.58;33.08
58769;BME280;44536;47.474;19.056;2023-05-28T08:23:39;100614.09;;;26.47;32.96
58769;BME280;44536;47.474;19.056;2023-05-28T08:26:42;100614.53;;;26.50;33.02
58769;BME280;44536;47.474;19.056;2023-05-28T08:29:45;100614.56;;;26.24;33.52
58769;BME280;44536;47.474;19.056;2023-05-28T08:32:47;100613.16;;;25.82;34.02
58769;BME280;44536;47.474;19.056;2023-05-28T08:35:49;100610.66;;;25.73;34.79
58769;BME280;44536;47.474;19.056;2023-05-28T08:38:51;100606.63;;;25.17;36.16
58769;BME280;44536;47.474;19.056;2023-05-28T08:41:54;100606.09;;;24.87;35.73
58769;BME280;44536;47.474;19.056;2023-05-28T08:44:56;100606.28;;;24.79;36.78
58769;BME280;44536;47.474;19.056;2023-05-28T08:47:59;100607.97;;;24.86;36.49
58769;BME280;44536;47.474;19.056;2023-05-28T08:51:04;100608.94;;;24.65;37.33
58769;BME280;44536;47.474;19.056;2023-05-28T08:54:08;100601.34;;;24.95;36.37
58769;BME280;44536;47.474;19.056;2023-05-28T08:57:11;100601.41;;;25.22;35.81
58769;BME280;44536;47.474;19.056;2023-05-28T09:00:15;100601.81;;;26.31;34.65
58769;BME280;44536;47.474;19.056;2023-05-28T09:03:17;100592.41;;;27.16;32.48
58769;BME280;44536;47.474;19.056;2023-05-28T09:06:20;100589.97;;;28.32;30.79
58769;BME280;44536;47.474;19.056;2023-05-28T09:09:26;100592.47;;;28.52;30.16
58769;BME280;44536;47.474;19.056;2023-05-28T09:12:29;100593.50;;;29.29;29.33
58769;BME280;44536;47.474;19.056;2023-05-28T09:15:32;100590.84;;;30.75;27.60
58769;BME280;44536;47.474;19.056;2023-05-28T09:18:37;100592.75;;;32.15;25.36
58769;BME280;44536;47.474;19.056;2023-05-28T09:21:51;100590.09;;;32.64;24.63
58769;BME280;44536;47.474;19.056;2023-05-28T09:24:53;100584.34;;;33.78;22.95
58769;BME280;44536;47.474;19.056;2023-05-28T09:27:58;100576.03;;;33.36;23.39
58769;BME280;44536;47.474;19.056;2023-05-28T09:31:04;100579.56;;;34.52;22.41
58769;BME280;44536;47.474;19.056;2023-05-28T09:34:06;100570.66;;;35.74;20.70
58769;BME280;44536;47.474;19.056;2023-05-28T09:37:09;100566.44;;;36.87;19.21
58769;BME280;44536;47.474;19.056;2023-05-28T09:40:11;100582.19;;;37.30;18.79
58769;BME280;44536;47.474;19.056;2023-05-28T09:43:14;100577.03;;;38.05;17.75
58769;BME280;44536;47.474;19.056;2023-05-28T09:46:16;100569.97;;;39.03;17.04
58769;BME280;44536;47.474;19.056;2023-05-28T09:49:18;100564.56;;;39.63;16.44
58769;BME280;44536;47.474;19.056;2023-05-28T09:52:21;100576.44;;;40.65;15.88
58769;BME280;44536;47.474;19.056;2023-05-28T09:55:25;100571.44;;;41.25;14.77
58769;BME280;44536;47.474;19.056;2023-05-28T09:58:29;100577.38;;;42.08;14.35
58769;BME280;44536;47.474;19.056;2023-05-28T10:01:38;100568.38;;;43.29;13.69
58769;BME280;44536;47.474;19.056;2023-05-28T10:04:42;100557.69;;;43.95;12.86
58769;BME280;44536;47.474;19.056;2023-05-28T10:07:48;100554.69;;;44.00;12.78
58769;BME280;44536;47.474;19.056;2023-05-28T10:10:54;100566.41;;;44.81;12.11
58769;BME280;44536;47.474;19.056;2023-05-28T10:13:57;100552.97;;;45.29;11.51
58769;BME280;44536;47.474;19.056;2023-05-28T10:16:59;100552.69;;;44.88;11.80
58769;BME280;44536;47.474;19.056;2023-05-28T10:20:01;100547.91;;;46.12;11.15
58769;BME280;44536;47.474;19.056;2023-05-28T10:23:07;100544.66;;;47.15;10.20
58769;BME280;44536;47.474;19.056;2023-05-28T10:26:09;100541.19;;;47.50;9.99
58769;BME280;44536;47.474;19.056;2023-05-28T10:29:11;100538.78;;;47.20;10.08
58769;BME280;44536;47.474;19.056;2023-05-28T10:32:14;100539.56;;;47.49;10.05
58769;BME280;44536;47.474;19.056;2023-05-28T10:35:17;100538.69;;;46.24;10.29
58769;BME280;44536;47.474;19.056;2023-05-28T10:38:19;100534.25;;;47.75;9.52
58769;BME280;44536;47.474;19.056;2023-05-28T10:41:22;100526.59;;;48.58;9.21
58769;BME280;44536;47.474;19.056;2023-05-28T10:44:24;100531.16;;;47.64;9.34
58769;BME280;44536;47.474;19.056;2023-05-28T10:47:30;100524.69;;;47.04;9.88
58769;BME280;44536;47.474;19.056;2023-05-28T10:50:33;100523.22;;;47.82;9.34
58769;BME280;44536;47.474;19.056;2023-05-28T10:53:35;100514.81;;;49.10;9.08
58769;BME280;44536;47.474;19.056;2023-05-28T10:56:37;100515.91;;;47.50;9.71
58769;BME280;44536;47.474;19.056;2023-05-28T11:00:00;100528.25;;;48.08;8.89
58769;BME280;44536;47.474;19.056;2023-05-28T11:03:02;100524.09;;;47.86;9.29
58769;BME280;44536;47.474;19.056;2023-05-28T11:06:05;100509.97;;;47.83;9.28
58769;BME280;44536;47.474;19.056;2023-05-28T11:09:09;100507.63;;;48.55;9.27
58769;BME280;44536;47.474;19.056;2023-05-28T11:12:11;100508.72;;;48.50;9.13
58769;BME280;44536;47.474;19.056;2023-05-28T11:15:13;100494.94;;;48.45;8.84
58769;BME280;44536;47.474;19.056;2023-05-28T11:18:16;100501.63;;;49.14;8.57
58769;BME280;44536;47.474;19.056;2023-05-28T11:21:18;100483.41;;;48.89;8.83
58769;BME280;44536;47.474;19.056;2023-05-28T11:24:20;100478.75;;;48.96;8.92
58769;BME280;44536;47.474;19.056;2023-05-28T11:27:22;100484.59;;;46.24;10.08
58769;BME280;44536;47.474;19.056;2023-05-28T11:30:25;100479.16;;;47.11;10.11
58769;BME280;44536;47.474;19.056;2023-05-28T11:33:28;100468.53;;;44.73;11.55
58769;BME280;44536;47.474;19.056;2023-05-28T11:36:30;100475.53;;;46.83;9.67
58769;BME280;44536;47.474;19.056;2023-05-28T11:39:33;100460.81;;;47.01;9.49
58769;BME280;44536;47.474;19.056;2023-05-28T11:42:37;100456.00;;;47.30;9.30
58769;BME280;44536;47.474;19.056;2023-05-28T11:45:39;100451.03;;;47.55;9.05
58769;BME280;44536;47.474;19.056;2023-05-28T11:48:42;100453.56;;;47.60;8.88
58769;BME280;44536;47.474;19.056;2023-05-28T11:51:44;100445.22;;;46.88;9.72
58769;BME280;44536;47.474;19.056;2023-05-28T11:55:08;100437.81;;;47.55;8.38
58769;BME280;44536;47.474;19.056;2023-05-28T11:58:08;100431.44;;;47.11;9.14
58769;BME280;44536;47.474;19.056;2023-05-28T12:01:17;100442.72;;;46.99;8.87
58769;BME280;44536;47.474;19.056;2023-05-28T12:04:22;100430.75;;;46.18;10.01
58769;BME280;44536;47.474;19.056;2023-05-28T12:07:28;100429.50;;;46.99;9.25
58769;BME280;44536;47.474;19.056;2023-05-28T12:10:31;100434.09;;;47.51;8.95
58769;BME280;44536;47.474;19.056;2023-05-28T12:13:33;100432.16;;;47.39;9.41
58769;BME280;44536;47.474;19.056;2023-05-28T12:16:43;100422.56;;;47.40;9.35
58769;BME280;44536;47.474;19.056;2023-05-28T12:19:48;100425.91;;;47.15;9.74
58769;BME280;44536;47.474;19.056;2023-05-28T12:23:04;100429.06;;;48.85;8.99
58769;BME280;44536;47.474;19.056;2023-05-28T12:26:09;100431.41;;;48.44;8.82
58769;BME280;44536;47.474;19.056;2023-05-28T12:29:12;100431.56;;;47.46;9.60
58769;BME280;44536;47.474;19.056;2023-05-28T12:32:14;100431.03;;;46.41;9.87
58769;BME280;44536;47.474;19.056;2023-05-28T12:35:17;100422.75;;;47.48;9.56
58769;BME280;44536;47.474;19.056;2023-05-28T12:38:19;100424.56;;;48.61;9.34
58769;BME280;44536;47.474;19.056;2023-05-28T12:41:22;100424.69;;;47.00;9.78
58769;BME280;44536;47.474;19.056;2023-05-28T12:44:24;100421.34;;;46.94;9.93
58769;BME280;44536;47.474;19.056;2023-05-28T12:47:27;100405.09;;;41.53;13.03
58769;BME280;44536;47.474;19.056;2023-05-28T12:50:29;100407.56;;;33.93;20.48
58769;BME280;44536;47.474;19.056;2023-05-28T12:53:31;100407.38;;;31.58;23.47
58769;BME280;44536;47.474;19.056;2023-05-28T12:56:33;100404.84;;;31.13;24.54
58769;BME280;44536;47.474;19.056;2023-05-28T12:59:35;100397.22;;;31.37;23.46
58769;BME280;44536;47.474;19.056;2023-05-28T13:02:38;100404.72;;;30.58;24.25
58769;BME280;44536;47.474;19.056;2023-05-28T13:05:41;100396.03;;;30.04;24.75
58769;BME280;44536;47.474;19.056;2023-05-28T13:08:43;100403.44;;;29.80;25.40
58769;BME280;44536;47.474;19.056;2023-05-28T13:11:45;100383.56;;;29.45;26.17
58769;BME280;44536;47.474;19.056;2023-05-28T13:14:47;100393.75;;;29.14;26.42
58769;BME280;44536;47.474;19.056;2023-05-28T13:17:49;100385.91;;;29.18;25.56
58769;BME280;44536;47.474;19.056;2023-05-28T13:20:51;100387.47;;;28.90;26.57
58769;BME280;44536;47.474;19.056;2023-05-28T13:23:54;100389.41;;;28.72;26.95
58769;BME280;44536;47.474;19.056;2023-05-28T13:26:57;100399.22;;;28.91;26.55
58769;BME280;44536;47.474;19.056;2023-05-28T13:29:59;100395.91;;;28.89;26.19
58769;BME280;44536;47.474;19.056;2023-05-28T13:33:01;100377.97;;;28.40;26.06
58769;BME280;44536;47.474;19.056;2023-05-28T13:36:04;100382.94;;;28.13;27.07
58769;BME280;44536;47.474;19.056;2023-05-28T13:39:06;100378.47;;;27.88;27.17
58769;BME280;44536;47.474;19.056;2023-05-28T13:42:08;100373.91;;;28.00;27.64
58769;BME280;44536;47.474;19.056;2023-05-28T13:45:10;100370.16;;;27.65;26.87
58769;BME280;44536;47.474;19.056;2023-05-28T13:48:12;100372.03;;;27.28;25.73
58769;BME280;44536;47.474;19.056;2023-05-28T13:51:15;100372.37;;;26.88;26.65
58769;BME280;44536;47.474;19.056;2023-05-28T13:54:17;100367.72;;;26.70;26.16
58769;BME280;44536;47.474;19.056;2023-05-28T13:57:19;100360.75;;;27.24;25.78
58769;BME280;44536;47.474;19.056;2023-05-28T14:00:22;100358.66;;;27.45;26.46
58769;BME280;44536;47.474;19.056;2023-05-28T14:03:31;100361.19;;;27.21;26.23
58769;BME280;44536;47.474;19.056;2023-05-28T14:06:33;100353.72;;;26.92;26.42
58769;BME280;44536;47.474;19.056;2023-05-28T14:09:35;100358.22;;;27.04;26.22
58769;BME280;44536;47.474;19.056;2023-05-28T14:12:40;100349.84;;;26.81;25.22
58769;BME280;44536;47.474;19.056;2023-05-28T14:15:42;100347.31;;;26.55;25.85
58769;BME280;44536;47.474;19.056;2023-05-28T14:18:45;100347.72;;;26.33;26.00
58769;BME280;44536;47.474;19.056;2023-05-28T14:21:47;100339.34;;;26.28;26.31
58769;BME280;44536;47.474;19.056;2023-05-28T14:24:49;100338.41;;;26.48;26.49
58769;BME280;44536;47.474;19.056;2023-05-28T14:27:51;100336.34;;;26.43;26.49
58769;BME280;44536;47.474;19.056;2023-05-28T14:31:11;100342.28;;;26.58;26.02
58769;BME280;44536;47.474;19.056;2023-05-28T14:34:14;100338.28;;;26.36;25.88
58769;BME280;44536;47.474;19.056;2023-05-28T14:37:16;100339.91;;;26.44;24.89
58769;BME280;44536;47.474;19.056;2023-05-28T14:40:20;100336.03;;;26.26;26.23
58769;BME280;44536;47.474;19.056;2023-05-28T14:43:22;100327.34;;;26.11;26.84
58769;BME280;44536;47.474;19.056;2023-05-28T14:46:25;100334.44;;;26.12;26.64
58769;BME280;44536;47.474;19.056;2023-05-28T14:49:27;100329.41;;;26.16;25.24
58769;BME280;44536;47.474;19.056;2023-05-28T14:52:30;100321.31;;;26.02;25.44
58769;BME280;44536;47.474;19.056;2023-05-28T14:55:32;100321.59;;;25.94;26.60
58769;BME280;44536;47.474;19.056;2023-05-28T14:58:35;100317.16;;;26.00;25.73
58769;BME280;44536;47.474;19.056;2023-05-28T15:01:37;100325.09;;;26.01;26.99
58769;BME280;44536;47.474;19.056;2023-05-28T15:04:40;100321.31;;;26.02;26.83
58769;BME280;44536;47.474;19.056;2023-05-28T15:07:46;100320.16;;;25.92;26.41
58769;BME280;44536;47.474;19.056;2023-05-28T15:10:48;100316.66;;;25.78;26.31
58769;BME280;44536;47.474;19.056;2023-05-28T15:13:50;100319.44;;;25.65;26.45
58769;BME280;44536;47.474;19.056;2023-05-28T15:16:55;100316.22;;;25.30;27.17
58769;BME280;44536;47.474;19.056;2023-05-28T15:19:57;100309.34;;;25.27;26.16
58769;BME280;44536;47.474;19.056;2023-05-28T15:23:00;100309.56;;;25.19;26.80
58769;BME280;44536;47.474;19.056;2023-05-28T15:26:02;100303.22;;;25.45;25.73
58769;BME280;44536;47.474;19.056;2023-05-28T15:29:04;100304.00;;;25.52;25.73
58769;BME280;44536;47.474;19.056;2023-05-28T15:32:07;100303.03;;;25.47;26.17
58769;BME280;44536;47.474;19.056;2023-05-28T15:35:09;100306.19;;;25.37;26.04
58769;BME280;44536;47.474;19.056;2023-05-28T15:38:12;100289.75;;;25.12;26.41
58769;BME280;44536;47.474;19.056;2023-05-28T15:41:15;100305.19;;;25.18;26.58
58769;BME280;44536;47.474;19.056;2023-05-28T15:44:17;100294.75;;;25.22;26.31